Time;durP1;ratioP1;P1;durP2;ratioP2;P2;SDS_P1;SDS_P2;PMS_P1;PMS_P2;Temp;Humidity;BMP_temperature;BMP_pressure;BME280_temperature;BME280_humidity;BME280_pressure;Samples;Min_cycle;Max_cycle;Signal;HPM_P1;HPM_P2
2022/10/17 00:00:49;;;;;;;36.10;23.77;;;;;;;;;;741916;185;916359;-67
2022/10/17 00:03:15;;;;;;;24.10;16.80;;;;;;;;;;742267;187;918927;-67
2022/10/17 00:05:41;;;;;;;25.00;17.13;;;;;;;;;;743079;186;918752;-66
2022/10/17 00:08:06;;;;;;;30.90;18.23;;;;;;;;;;751216;186;880458;-67
2022/10/17 00:10:32;;;;;;;23.70;17.07;;;;;;;;;;742534;186;919553;-66
2022/10/17 00:12:58;;;;;;;28.17;17.83;;;;;;;;;;742794;187;917789;-66
2022/10/17 00:15:24;;;;;;;29.53;18.57;;;;;;;;;;748969;187;812817;-68
2022/10/17 00:17:50;;;;;;;27.80;16.90;;;;;;;;;;743074;187;915971;-67
2022/10/17 00:20:16;;;;;;;23.37;16.30;;;;;;;;;;742731;187;882433;-61
2022/10/17 00:22:42;;;;;;;33.00;18.00;;;;;;;;;;749612;186;813354;-67
2022/10/17 00:25:07;;;;;;;24.30;16.13;;;;;;;;;;745309;185;794919;-68
2022/10/17 00:27:33;;;;;;;35.10;17.00;;;;;;;;;;742484;186;1019087;-67
2022/10/17 00:29:59;;;;;;;25.60;15.67;;;;;;;;;;750881;186;919338;-66
2022/10/17 00:32:25;;;;;;;27.10;15.77;;;;;;;;;;742050;186;920355;-67
2022/10/17 00:34:51;;;;;;;25.77;15.47;;;;;;;;;;743757;187;919106;-61
2022/10/17 00:37:18;;;;;;;22.63;15.37;;;;;;;;;;742804;186;919651;-61
2022/10/17 00:39:43;;;;;;;26.40;16.23;;;;;;;;;;749582;187;917625;-61
2022/10/17 00:42:10;;;;;;;27.10;16.17;;;;;;;;;;746097;187;919159;-60
2022/10/17 00:44:51;;;;;;;27.23;17.33;;;;;;;;;;744970;187;918759;-61
2022/10/17 00:47:17;;;;;;;27.50;15.90;;;;;;;;;;740462;187;1021723;-61
2022/10/17 00:49:42;;;;;;;22.67;15.40;;;;;;;;;;745867;187;922056;-67
2022/10/17 00:52:10;;;;;;;28.80;16.80;;;;;;;;;;743246;187;910372;-67
2022/10/17 00:54:37;;;;;;;28.87;17.37;;;;;;;;;;742439;186;913091;-67
2022/10/17 00:57:03;;;;;;;24.53;17.60;;;;;;;;;;746174;186;815156;-67
2022/10/17 00:59:28;;;;;;;27.10;18.93;;;;;;;;;;742514;187;920280;-67
2022/10/17 01:01:56;;;;;;;29.77;16.83;;;;;;;;;;741009;186;918121;-61
2022/10/17 01:04:22;;;;;;;27.83;17.47;;;;;;;;;;745098;187;915085;-61
2022/10/17 01:06:48;;;;;;;37.63;18.20;;;;;;;;;;749787;186;918825;-61
2022/10/17 01:09:14;;;;;;;35.53;17.47;;;;;;;;;;744825;187;915558;-67
2022/10/17 01:11:40;;;;;;;38.67;20.40;;;;;;;;;;743882;186;918339;-62
2022/10/17 01:14:09;;;;;;;39.83;19.40;;;;;;;;;;746818;186;919402;-61
2022/10/17 01:16:39;;;;;;;29.20;18.20;;;;;;;;;;740897;186;918584;-62
2022/10/17 01:19:07;;;;;;;34.70;17.97;;;;;;;;;;738965;187;942151;-60
2022/10/17 01:21:48;;;;;;;29.13;18.67;;;;;;;;;;739533;187;918737;-62
2022/10/17 01:24:17;;;;;;;30.10;17.77;;;;;;;;;;739670;187;920934;-67
2022/10/17 01:26:44;;;;;;;27.03;18.10;;;;;;;;;;744859;187;922174;-67
2022/10/17 01:29:18;;;;;;;36.67;16.93;;;;;;;;;;742443;186;919172;-67
2022/10/17 01:31:46;;;;;;;29.00;17.60;;;;;;;;;;740270;187;918895;-66
2022/10/17 01:34:13;;;;;;;24.63;16.30;;;;;;;;;;746493;185;926710;-66
2022/10/17 01:36:39;;;;;;;30.27;16.17;;;;;;;;;;748756;186;905582;-67
2022/10/17 01:39:21;;;;;;;27.63;16.23;;;;;;;;;;740411;187;821605;-61
2022/10/17 01:41:46;;;;;;;30.17;16.40;;;;;;;;;;748418;186;918790;-60
2022/10/17 01:44:13;;;;;;;24.40;15.40;;;;;;;;;;741127;187;917951;-61
2022/10/17 01:46:39;;;;;;;23.30;15.70;;;;;;;;;;740871;184;918198;-61
2022/10/17 01:49:05;;;;;;;25.50;16.57;;;;;;;;;;746384;188;815534;-67
2022/10/17 01:51:33;;;;;;;27.53;17.70;;;;;;;;;;740302;187;913020;-67
2022/10/17 01:53:59;;;;;;;28.30;17.93;;;;;;;;;;738569;187;917782;-67
2022/10/17 01:56:25;;;;;;;27.33;16.20;;;;;;;;;;746636;186;918081;-60
2022/10/17 01:58:51;;;;;;;23.98;15.65;;;;;;;;;;743702;187;917772;-60
2022/10/17 02:01:17;;;;;;;23.27;16.47;;;;;;;;;;743267;185;919310;-61
2022/10/17 02:03:43;;;;;;;18.67;14.73;;;;;;;;;;748582;186;820512;-68
2022/10/17 02:06:08;;;;;;;19.55;14.25;;;;;;;;;;747494;186;819452;-68
2022/10/17 02:08:41;;;;;;;23.17;15.90;;;;;;;;;;742177;185;916225;-61
2022/10/17 02:11:08;;;;;;;23.43;15.40;;;;;;;;;;743812;185;913858;-67
2022/10/17 02:13:36;;;;;;;22.70;16.17;;;;;;;;;;745053;185;917092;-60
2022/10/17 02:16:03;;;;;;;28.67;15.93;;;;;;;;;;743844;187;816726;-67
2022/10/17 02:18:35;;;;;;;24.10;16.67;;;;;;;;;;741186;186;919281;-61
2022/10/17 02:21:10;;;;;;;22.45;14.52;;;;;;;;;;742856;186;918933;-66
2022/10/17 02:23:40;;;;;;;25.40;16.20;;;;;;;;;;739340;187;919323;-61
2022/10/17 02:26:21;;;;;;;27.03;16.60;;;;;;;;;;747556;186;812200;-61
2022/10/17 02:28:47;;;;;;;29.10;17.40;;;;;;;;;;747297;187;918365;-61
2022/10/17 02:31:13;;;;;;;21.77;15.33;;;;;;;;;;745329;185;915768;-61
2022/10/17 02:33:41;;;;;;;30.50;18.23;;;;;;;;;;735089;188;916546;-66
2022/10/17 02:36:07;;;;;;;42.23;21.17;;;;;;;;;;744829;187;921526;-60
2022/10/17 02:38:33;;;;;;;32.23;20.27;;;;;;;;;;746609;187;914711;-61
2022/10/17 02:40:59;;;;;;;32.50;17.93;;;;;;;;;;745132;184;916165;-59
2022/10/17 02:43:25;;;;;;;33.10;19.35;;;;;;;;;;749691;184;915999;-60
2022/10/17 02:45:51;;;;;;;41.03;21.80;;;;;;;;;;755704;184;813178;-60
2022/10/17 02:48:18;;;;;;;35.40;19.00;;;;;;;;;;746225;186;918774;-59
2022/10/17 02:50:49;;;;;;;36.80;20.30;;;;;;;;;;743261;186;1021817;-60
2022/10/17 02:53:15;;;;;;;40.37;19.60;;;;;;;;;;747017;186;1021042;-66
2022/10/17 02:55:42;;;;;;;35.93;21.30;;;;;;;;;;743584;186;916707;-66
2022/10/17 02:58:08;;;;;;;38.73;23.40;;;;;;;;;;741518;185;1121206;-60
2022/10/17 03:00:34;;;;;;;74.40;31.10;;;;;;;;;;745568;186;918897;-60
2022/10/17 03:02:59;;;;;;;51.70;25.03;;;;;;;;;;749166;185;938753;-67
2022/10/17 03:05:25;;;;;;;46.03;25.33;;;;;;;;;;740961;188;918523;-67
2022/10/17 03:07:51;;;;;;;44.47;22.53;;;;;;;;;;739116;187;1018616;-65
2022/10/17 03:10:17;;;;;;;46.00;24.73;;;;;;;;;;747274;187;916793;-59
2022/10/17 03:12:43;;;;;;;43.43;22.07;;;;;;;;;;742753;185;920937;-65
2022/10/17 03:15:09;;;;;;;41.67;21.60;;;;;;;;;;742058;186;918446;-66
2022/10/17 03:17:35;;;;;;;30.73;19.23;;;;;;;;;;747357;187;920194;-60
2022/10/17 03:20:01;;;;;;;34.87;19.60;;;;;;;;;;745901;187;918279;-60
2022/10/17 03:22:27;;;;;;;38.13;18.30;;;;;;;;;;744106;186;918895;-60
2022/10/17 03:24:53;;;;;;;33.83;19.33;;;;;;;;;;748824;185;918441;-61
2022/10/17 03:27:19;;;;;;;33.97;17.40;;;;;;;;;;745240;188;818913;-66
2022/10/17 03:29:45;;;;;;;23.80;16.53;;;;;;;;;;739117;187;815990;-60
2022/10/17 03:32:11;;;;;;;23.53;15.60;;;;;;;;;;741721;187;817581;-60
2022/10/17 03:34:38;;;;;;;24.40;15.97;;;;;;;;;;747869;187;815928;-62
2022/10/17 03:37:04;;;;;;;27.97;15.67;;;;;;;;;;740581;187;917085;-60
2022/10/17 03:39:30;;;;;;;24.60;14.67;;;;;;;;;;742408;185;909148;-66
2022/10/17 03:41:56;;;;;;;33.70;17.20;;;;;;;;;;748813;187;920487;-66
2022/10/17 03:44:22;;;;;;;38.00;21.20;;;;;;;;;;744794;187;941497;-60
2022/10/17 03:46:47;;;;;;;40.80;19.90;;;;;;;;;;744640;187;918954;-65
2022/10/17 03:49:13;;;;;;;31.55;19.35;;;;;;;;;;747515;186;912747;-65
2022/10/17 03:51:39;;;;;;;25.47;17.40;;;;;;;;;;750444;186;914077;-60
2022/10/17 03:54:05;;;;;;;35.70;19.03;;;;;;;;;;741613;186;941027;-61
2022/10/17 03:56:31;;;;;;;34.53;19.33;;;;;;;;;;743339;185;915539;-60
2022/10/17 03:58:57;;;;;;;32.60;17.87;;;;;;;;;;750279;186;916085;-67
2022/10/17 04:01:23;;;;;;;41.87;20.10;;;;;;;;;;742533;186;919015;-66
2022/10/17 04:03:51;;;;;;;33.20;18.23;;;;;;;;;;742788;187;914333;-59
2022/10/17 04:06:17;;;;;;;31.37;20.33;;;;;;;;;;748075;185;918753;-60
2022/10/17 04:08:43;;;;;;;36.23;21.83;;;;;;;;;;743763;187;916045;-66
2022/10/17 04:11:09;;;;;;;27.73;17.63;;;;;;;;;;745040;186;916379;-66
2022/10/17 04:13:35;;;;;;;32.03;18.07;;;;;;;;;;743152;186;920106;-66
2022/10/17 04:16:01;;;;;;;29.20;17.03;;;;;;;;;;747641;186;914530;-60
2022/10/17 04:18:27;;;;;;;26.27;16.87;;;;;;;;;;741388;186;932323;-60
2022/10/17 04:20:53;;;;;;;28.70;14.87;;;;;;;;;;743248;186;815533;-60
2022/10/17 04:23:19;;;;;;;31.37;15.40;;;;;;;;;;749706;184;919997;-67
2022/10/17 04:25:45;;;;;;;25.73;14.00;;;;;;;;;;742475;187;920022;-66
2022/10/17 04:28:11;;;;;;;22.57;13.40;;;;;;;;;;745484;186;921557;-60
2022/10/17 04:30:36;;;;;;;20.00;13.60;;;;;;;;;;746741;186;927393;-67
2022/10/17 04:33:02;;;;;;;30.93;13.90;;;;;;;;;;742364;186;908284;-68
2022/10/17 04:35:28;;;;;;;22.27;12.97;;;;;;;;;;744707;185;915569;-59
2022/10/17 04:37:54;;;;;;;24.30;14.33;;;;;;;;;;745213;186;815894;-67
2022/10/17 04:40:20;;;;;;;22.10;13.47;;;;;;;;;;750600;185;841079;-66
2022/10/17 04:42:46;;;;;;;26.93;14.50;;;;;;;;;;744756;186;816699;-66
2022/10/17 04:45:11;;;;;;;23.53;14.80;;;;;;;;;;741545;186;918692;-66
2022/10/17 04:47:37;;;;;;;29.63;12.73;;;;;;;;;;747896;187;814598;-60
2022/10/17 04:50:04;;;;;;;21.07;12.43;;;;;;;;;;744622;186;915554;-66
2022/10/17 04:52:30;;;;;;;19.73;12.53;;;;;;;;;;740665;186;919240;-61
2022/10/17 04:54:55;;;;;;;20.10;11.40;;;;;;;;;;746189;187;917542;-60
2022/10/17 04:57:21;;;;;;;22.40;12.70;;;;;;;;;;743859;187;919573;-66
2022/10/17 04:59:47;;;;;;;16.90;11.23;;;;;;;;;;742435;187;1020607;-66
2022/10/17 05:02:13;;;;;;;18.30;12.77;;;;;;;;;;747308;187;823089;-60
2022/10/17 05:04:39;;;;;;;21.60;10.47;;;;;;;;;;743238;187;915939;-60
2022/10/17 05:07:05;;;;;;;17.43;11.13;;;;;;;;;;739964;186;918651;-65
2022/10/17 05:09:30;;;;;;;22.77;11.93;;;;;;;;;;745996;185;915441;-60
2022/10/17 05:11:56;;;;;;;27.33;14.53;;;;;;;;;;750263;186;816552;-60
2022/10/17 05:14:22;;;;;;;14.40;10.43;;;;;;;;;;751283;185;616831;-60
2022/10/17 05:16:48;;;;;;;17.80;11.57;;;;;;;;;;743136;187;817406;-60
2022/10/17 05:19:14;;;;;;;19.83;11.37;;;;;;;;;;751207;186;712363;-66
2022/10/17 05:21:40;;;;;;;27.70;14.47;;;;;;;;;;743115;187;900653;-66
2022/10/17 05:24:06;;;;;;;33.30;16.63;;;;;;;;;;741088;187;918889;-66
2022/10/17 05:26:31;;;;;;;38.03;16.77;;;;;;;;;;751120;185;944822;-61
2022/10/17 05:28:59;;;;;;;26.52;14.18;;;;;;;;;;741016;186;919155;-66
2022/10/17 05:31:23;;;;;;;24.17;13.27;;;;;;;;;;746112;187;629690;-67
2022/10/17 05:33:49;;;;;;;27.40;13.10;;;;;;;;;;741857;187;918436;-66
2022/10/17 05:36:15;;;;;;;21.10;14.57;;;;;;;;;;747378;186;816335;-59
2022/10/17 05:38:41;;;;;;;30.77;15.17;;;;;;;;;;742514;186;918954;-66
2022/10/17 05:41:06;;;;;;;51.20;21.13;;;;;;;;;;744112;184;817318;-66
2022/10/17 05:43:32;;;;;;;49.53;21.77;;;;;;;;;;747718;185;918995;-59
2022/10/17 05:45:58;;;;;;;55.77;24.17;;;;;;;;;;743691;187;918438;-60
2022/10/17 05:48:24;;;;;;;46.60;23.93;;;;;;;;;;745479;186;919005;-66
2022/10/17 05:50:50;;;;;;;46.40;23.13;;;;;;;;;;746106;187;913329;-67
2022/10/17 05:53:16;;;;;;;44.97;21.42;;;;;;;;;;747793;184;915691;-67
2022/10/17 05:55:42;;;;;;;35.83;18.20;;;;;;;;;;740352;186;918638;-61
2022/10/17 05:58:07;;;;;;;32.00;15.67;;;;;;;;;;741496;187;919544;-61
2022/10/17 06:00:33;;;;;;;39.00;17.20;;;;;;;;;;743914;187;918623;-61
2022/10/17 06:02:59;;;;;;;31.33;18.80;;;;;;;;;;740865;187;920703;-66
2022/10/17 06:05:25;;;;;;;34.90;18.90;;;;;;;;;;743026;187;918240;-66
2022/10/17 06:07:52;;;;;;;31.77;17.87;;;;;;;;;;750752;187;819119;-60
2022/10/17 06:10:18;;;;;;;24.23;15.80;;;;;;;;;;742547;186;919835;-67
2022/10/17 06:12:44;;;;;;;33.45;19.17;;;;;;;;;;743170;185;919679;-61
2022/10/17 06:15:10;;;;;;;28.60;19.80;;;;;;;;;;745610;186;916740;-66
2022/10/17 06:17:36;;;;;;;28.83;17.50;;;;;;;;;;741003;186;922282;-60
2022/10/17 06:20:03;;;;;;;32.00;18.93;;;;;;;;;;742063;186;923649;-61
2022/10/17 06:22:28;;;;;;;34.90;20.50;;;;;;;;;;746890;187;818741;-61
2022/10/17 06:24:55;;;;;;;35.00;18.63;;;;;;;;;;748601;185;912926;-68
2022/10/17 06:27:21;;;;;;;26.53;16.77;;;;;;;;;;744621;185;909293;-66
2022/10/17 06:29:47;;;;;;;33.80;18.90;;;;;;;;;;743852;184;919436;-61
2022/10/17 06:32:13;;;;;;;27.60;16.37;;;;;;;;;;751893;185;794860;-67
2022/10/17 06:34:39;;;;;;;32.00;18.53;;;;;;;;;;744308;185;879110;-67
2022/10/17 06:37:05;;;;;;;31.00;18.30;;;;;;;;;;743564;187;948674;-70
2022/10/17 06:39:32;;;;;;;28.07;17.10;;;;;;;;;;747178;187;820748;-67
2022/10/17 06:41:56;;;;;;;20.63;14.50;;;;;;;;;;742879;187;918774;-67
2022/10/17 06:44:27;;;;;;;30.87;17.37;;;;;;;;;;741552;187;916460;-67
2022/10/17 06:46:49;;;;;;;29.90;17.47;;;;;;;;;;741628;187;919291;-61
2022/10/17 06:49:15;;;;;;;26.73;16.07;;;;;;;;;;749050;186;919559;-62
2022/10/17 06:51:41;;;;;;;26.83;18.33;;;;;;;;;;741450;186;913892;-61
2022/10/17 06:54:07;;;;;;;24.33;16.97;;;;;;;;;;742490;184;919195;-66
2022/10/17 06:56:33;;;;;;;27.53;17.20;;;;;;;;;;745606;186;917393;-60
2022/10/17 06:58:59;;;;;;;24.87;16.40;;;;;;;;;;742475;187;915972;-60
2022/10/17 07:01:25;;;;;;;28.47;17.40;;;;;;;;;;742821;187;918911;-61
2022/10/17 07:03:51;;;;;;;26.93;17.20;;;;;;;;;;746423;187;823536;-60
2022/10/17 07:06:16;;;;;;;29.80;19.47;;;;;;;;;;739678;185;940832;-61
2022/10/17 07:08:43;;;;;;;26.73;17.20;;;;;;;;;;741865;185;920396;-67
2022/10/17 07:11:09;;;;;;;29.12;19.33;;;;;;;;;;743441;185;915855;-66
2022/10/17 07:13:35;;;;;;;29.67;19.77;;;;;;;;;;746359;186;921866;-61
2022/10/17 07:16:01;;;;;;;34.67;20.75;;;;;;;;;;744288;186;915145;-67
2022/10/17 07:18:26;;;;;;;40.17;18.37;;;;;;;;;;745423;187;1007815;-61
2022/10/17 07:20:52;;;;;;;29.50;18.33;;;;;;;;;;748976;187;915897;-60
2022/10/17 07:23:18;;;;;;;30.13;19.00;;;;;;;;;;742274;187;1016907;-67
2022/10/17 07:25:44;;;;;;;27.73;21.00;;;;;;;;;;745177;185;911128;-67
2022/10/17 07:28:10;;;;;;;25.77;16.90;;;;;;;;;;748028;187;816766;-61
2022/10/17 07:30:36;;;;;;;27.43;17.50;;;;;;;;;;742889;187;885351;-67
2022/10/17 07:33:01;;;;;;;24.07;16.93;;;;;;;;;;744217;186;918602;-61
2022/10/17 07:35:27;;;;;;;37.17;17.13;;;;;;;;;;750453;187;919030;-68
2022/10/17 07:37:53;;;;;;;26.03;15.10;;;;;;;;;;744762;185;920127;-67
2022/10/17 07:40:19;;;;;;;17.60;12.47;;;;;;;;;;743100;187;919680;-61
2022/10/17 07:42:45;;;;;;;21.43;12.03;;;;;;;;;;742440;187;918800;-67
2022/10/17 07:45:11;;;;;;;15.70;10.50;;;;;;;;;;749531;187;918240;-61
2022/10/17 07:47:37;;;;;;;13.93;10.90;;;;;;;;;;743036;185;919021;-67
2022/10/17 07:50:04;;;;;;;16.97;10.60;;;;;;;;;;744177;186;918038;-68
2022/10/17 07:52:30;;;;;;;15.63;10.10;;;;;;;;;;745475;187;922099;-68
2022/10/17 07:54:56;;;;;;;12.77;10.03;;;;;;;;;;740905;186;921914;-60
2022/10/17 07:57:22;;;;;;;13.33;9.13;;;;;;;;;;741805;186;923662;-60
2022/10/17 07:59:49;;;;;;;16.17;9.90;;;;;;;;;;748497;187;838270;-60
2022/10/17 08:02:13;;;;;;;12.73;9.20;;;;;;;;;;744072;186;919241;-68
2022/10/17 08:04:39;;;;;;;12.30;9.00;;;;;;;;;;743493;186;918885;-68
2022/10/17 08:07:05;;;;;;;15.23;9.03;;;;;;;;;;740043;187;919118;-67
2022/10/17 08:09:31;;;;;;;14.20;9.33;;;;;;;;;;748278;187;860377;-59
2022/10/17 08:11:57;;;;;;;16.00;8.40;;;;;;;;;;741926;186;915727;-69
2022/10/17 08:14:23;;;;;;;14.80;9.27;;;;;;;;;;738224;187;1835200;-68
2022/10/17 08:16:49;;;;;;;12.13;9.25;;;;;;;;;;745621;185;909004;-61
2022/10/17 08:19:14;;;;;;;10.53;7.93;;;;;;;;;;741567;186;920040;-60
2022/10/17 08:21:42;;;;;;;12.70;8.10;;;;;;;;;;740631;187;899205;-61
2022/10/17 08:24:06;;;;;;;12.40;8.23;;;;;;;;;;746411;184;919429;-60
2022/10/17 08:26:32;;;;;;;13.10;8.37;;;;;;;;;;740811;187;917112;-59
2022/10/17 08:28:58;;;;;;;9.45;8.15;;;;;;;;;;739951;184;919880;-69
2022/10/17 08:31:24;;;;;;;12.77;8.97;;;;;;;;;;742190;185;918974;-60
2022/10/17 08:33:49;;;;;;;10.77;7.87;;;;;;;;;;749391;186;816952;-59
2022/10/17 08:36:15;;;;;;;12.50;9.80;;;;;;;;;;743858;187;919179;-60
2022/10/17 08:38:42;;;;;;;13.40;9.30;;;;;;;;;;741793;186;918722;-61
2022/10/17 08:41:07;;;;;;;12.65;8.43;;;;;;;;;;746338;187;918005;-61
2022/10/17 08:43:50;;;;;;;13.50;8.47;;;;;;;;;;741389;186;918469;-61
2022/10/17 08:46:15;;;;;;;11.60;8.60;;;;;;;;;;743602;186;918696;-59
2022/10/17 08:48:41;;;;;;;13.17;7.90;;;;;;;;;;742146;186;871675;-61
2022/10/17 08:51:11;;;;;;;10.27;7.93;;;;;;;;;;748272;186;918414;-69
2022/10/17 08:53:41;;;;;;;9.30;7.90;;;;;;;;;;746816;187;919848;-60
2022/10/17 08:56:06;;;;;;;11.43;7.77;;;;;;;;;;739622;186;905547;-60
2022/10/17 08:58:32;;;;;;;11.33;7.90;;;;;;;;;;741002;186;918903;-61
2022/10/17 09:00:58;;;;;;;13.30;7.10;;;;;;;;;;747056;184;918362;-59
2022/10/17 09:03:26;;;;;;;9.27;8.00;;;;;;;;;;742343;184;916956;-60
2022/10/17 09:05:52;;;;;;;11.57;8.20;;;;;;;;;;738453;187;917884;-61
2022/10/17 09:08:23;;;;;;;19.80;6.73;;;;;;;;;;745172;187;918396;-60
2022/10/17 09:10:55;;;;;;;10.63;7.73;;;;;;;;;;746634;185;918805;-69
2022/10/17 09:13:35;;;;;;;11.93;7.60;;;;;;;;;;742162;187;920973;-68
2022/10/17 09:16:03;;;;;;;8.87;7.33;;;;;;;;;;735261;185;921050;-69
2022/10/17 09:18:30;;;;;;;9.00;6.63;;;;;;;;;;740893;186;922297;-59
2022/10/17 09:20:57;;;;;;;12.43;7.37;;;;;;;;;;746767;186;917370;-60
2022/10/17 09:23:22;;;;;;;17.83;7.20;;;;;;;;;;744482;187;823385;-61
2022/10/17 09:25:48;;;;;;;10.07;6.73;;;;;;;;;;741366;187;918739;-69
2022/10/17 09:28:17;;;;;;;10.83;7.43;;;;;;;;;;740490;187;920434;-69
2022/10/17 09:30:43;;;;;;;10.40;7.40;;;;;;;;;;750332;186;814912;-69
2022/10/17 09:33:10;;;;;;;20.60;6.73;;;;;;;;;;744459;186;918776;-60
2022/10/17 09:35:36;;;;;;;9.43;6.78;;;;;;;;;;742482;187;919487;-60
2022/10/17 09:38:01;;;;;;;8.93;6.70;;;;;;;;;;747373;187;816835;-68
2022/10/17 09:40:27;;;;;;;8.40;7.50;;;;;;;;;;745073;187;911520;-61
2022/10/17 09:42:53;;;;;;;15.03;6.97;;;;;;;;;;742498;187;911209;-61
2022/10/17 09:45:23;;;;;;;12.43;6.60;;;;;;;;;;741554;186;914064;-61
2022/10/17 09:47:50;;;;;;;10.10;6.40;;;;;;;;;;752758;185;915056;-68
2022/10/17 09:50:21;;;;;;;9.23;6.53;;;;;;;;;;741396;187;913017;-61
2022/10/17 09:52:49;;;;;;;13.48;6.93;;;;;;;;;;740060;187;919057;-69
2022/10/17 09:55:17;;;;;;;10.37;6.07;;;;;;;;;;748072;186;921986;-68
2022/10/17 09:57:49;;;;;;;14.30;6.40;;;;;;;;;;748558;186;813636;-69
2022/10/17 10:00:15;;;;;;;9.80;6.70;;;;;;;;;;745524;186;1021405;-68
2022/10/17 10:02:40;;;;;;;9.43;6.03;;;;;;;;;;748127;185;631144;-61
2022/10/17 10:05:12;;;;;;;7.43;6.03;;;;;;;;;;748486;187;622866;-60
2022/10/17 10:07:38;;;;;;;12.77;5.40;;;;;;;;;;750691;187;921073;-67
2022/10/17 10:10:04;;;;;;;8.37;7.17;;;;;;;;;;743335;186;918841;-60
2022/10/17 10:12:31;;;;;;;8.87;6.70;;;;;;;;;;742212;185;920536;-68
2022/10/17 10:14:57;;;;;;;15.03;7.17;;;;;;;;;;747835;187;918366;-68
2022/10/17 10:17:25;;;;;;;10.03;7.50;;;;;;;;;;744346;185;918908;-61
2022/10/17 10:19:50;;;;;;;7.53;5.80;;;;;;;;;;741718;185;917843;-60
2022/10/17 10:22:16;;;;;;;11.70;6.43;;;;;;;;;;744998;187;916688;-61
2022/10/17 10:24:42;;;;;;;7.73;6.80;;;;;;;;;;749254;187;918999;-68
2022/10/17 10:27:09;;;;;;;8.57;6.40;;;;;;;;;;746224;186;920034;-60
2022/10/17 10:29:36;;;;;;;11.03;7.27;;;;;;;;;;741662;186;918987;-60
2022/10/17 10:32:16;;;;;;;8.80;6.07;;;;;;;;;;745288;187;915419;-69
2022/10/17 10:34:41;;;;;;;9.00;6.57;;;;;;;;;;751502;187;917961;-59
2022/10/17 10:37:21;;;;;;;7.57;6.00;;;;;;;;;;739481;187;918435;-60
2022/10/17 10:39:49;;;;;;;11.13;6.80;;;;;;;;;;741601;186;919150;-60
2022/10/17 10:42:16;;;;;;;12.53;6.70;;;;;;;;;;743179;187;918920;-59
2022/10/17 10:44:42;;;;;;;9.50;6.37;;;;;;;;;;748685;187;918159;-69
2022/10/17 10:47:14;;;;;;;17.10;7.60;;;;;;;;;;744477;185;921952;-69
2022/10/17 10:49:39;;;;;;;9.60;6.97;;;;;;;;;;747773;186;918398;-68
2022/10/17 10:52:05;;;;;;;11.97;6.43;;;;;;;;;;742011;185;918846;-60
2022/10/17 10:54:31;;;;;;;6.63;5.60;;;;;;;;;;747109;186;919558;-59
2022/10/17 10:56:57;;;;;;;10.90;6.70;;;;;;;;;;743462;186;819406;-67
2022/10/17 10:59:24;;;;;;;11.40;7.00;;;;;;;;;;741111;186;919312;-69
2022/10/17 11:01:50;;;;;;;10.10;7.93;;;;;;;;;;742133;189;816691;-68
2022/10/17 11:04:16;;;;;;;7.43;6.10;;;;;;;;;;743362;185;918366;-67
2022/10/17 11:06:42;;;;;;;8.47;6.87;;;;;;;;;;742245;187;818761;-60
2022/10/17 11:09:28;;;;;;;10.32;7.25;;;;;;;;;;746905;184;817067;-60
2022/10/17 11:11:54;;;;;;;12.50;6.97;;;;;;;;;;735045;189;919800;-68
2022/10/17 11:14:20;;;;;;;8.20;6.50;;;;;;;;;;749159;186;890941;-69
2022/10/17 11:16:46;;;;;;;12.80;6.27;;;;;;;;;;744694;187;918499;-61
2022/10/17 11:19:15;;;;;;;9.48;6.40;;;;;;;;;;743411;187;919063;-68
2022/10/17 11:21:41;;;;;;;18.40;7.60;;;;;;;;;;747541;187;816211;-69
2022/10/17 11:24:12;;;;;;;10.83;6.60;;;;;;;;;;742420;184;915795;-60
2022/10/17 11:26:37;;;;;;;10.23;6.57;;;;;;;;;;742656;187;914008;-60
2022/10/17 11:29:05;;;;;;;8.47;6.17;;;;;;;;;;744289;185;921503;-68
2022/10/17 11:31:30;;;;;;;10.60;5.70;;;;;;;;;;747752;187;914479;-60
2022/10/17 11:34:02;;;;;;;10.10;7.10;;;;;;;;;;741166;186;919868;-59
2022/10/17 11:36:29;;;;;;;9.10;6.40;;;;;;;;;;740892;187;921056;-61
2022/10/17 11:38:55;;;;;;;18.67;6.43;;;;;;;;;;742552;186;934486;-59
2022/10/17 11:41:28;;;;;;;8.37;6.03;;;;;;;;;;752768;185;817314;-60
2022/10/17 11:43:54;;;;;;;8.73;6.60;;;;;;;;;;744461;186;919618;-59
2022/10/17 11:46:22;;;;;;;7.40;6.15;;;;;;;;;;742192;185;922900;-67
2022/10/17 11:48:52;;;;;;;8.17;6.10;;;;;;;;;;748221;187;810344;-66
2022/10/17 11:51:18;;;;;;;10.70;7.30;;;;;;;;;;749472;184;919431;-60
2022/10/17 11:53:49;;;;;;;9.20;6.80;;;;;;;;;;743439;185;918629;-60
2022/10/17 11:56:15;;;;;;;11.40;6.73;;;;;;;;;;741991;187;919090;-58
2022/10/17 11:58:42;;;;;;;9.30;6.97;;;;;;;;;;749235;187;762026;-59
2022/10/17 12:01:08;;;;;;;8.80;6.27;;;;;;;;;;744023;186;918645;-65
2022/10/17 12:03:53;;;;;;;14.63;7.00;;;;;;;;;;740466;186;919165;-66
2022/10/17 12:06:21;;;;;;;10.30;6.90;;;;;;;;;;740797;185;918589;-66
2022/10/17 12:08:51;;;;;;;7.50;6.10;;;;;;;;;;742837;187;823797;-60
2022/10/17 12:11:33;;;;;;;11.00;7.43;;;;;;;;;;748451;186;810093;-59
2022/10/17 12:13:59;;;;;;;16.83;6.33;;;;;;;;;;748779;187;916721;-59
2022/10/17 12:16:36;;;;;;;16.70;6.33;;;;;;;;;;740997;185;917748;-60
2022/10/17 12:19:18;;;;;;;9.40;6.60;;;;;;;;;;744467;186;732381;-60
2022/10/17 12:21:50;;;;;;;6.93;6.23;;;;;;;;;;743686;186;932104;-60
2022/10/17 12:24:18;;;;;;;8.20;6.70;;;;;;;;;;744111;187;921054;-66
2022/10/17 12:26:44;;;;;;;7.47;5.80;;;;;;;;;;742183;185;916973;-60
2022/10/17 12:29:10;;;;;;;9.40;6.90;;;;;;;;;;748169;187;919281;-66
2022/10/17 12:31:36;;;;;;;8.60;5.80;;;;;;;;;;743699;185;922561;-59
2022/10/17 12:34:02;;;;;;;9.30;6.67;;;;;;;;;;743108;186;917668;-66
2022/10/17 12:36:42;;;;;;;9.70;6.60;;;;;;;;;;748545;186;923357;-66
2022/10/17 12:39:23;;;;;;;8.23;6.43;;;;;;;;;;747577;187;818269;-66
2022/10/17 12:41:52;;;;;;;9.23;5.80;;;;;;;;;;751710;185;880414;-59
2022/10/17 12:44:32;;;;;;;8.30;4.70;;;;;;;;;;743302;187;918818;-65
2022/10/17 12:47:19;;;;;;;6.23;5.20;;;;;;;;;;744468;186;911789;-59
2022/10/17 12:49:46;;;;;;;8.90;5.60;;;;;;;;;;740437;186;917668;-59
2022/10/17 12:52:14;;;;;;;7.40;5.27;;;;;;;;;;742472;186;922238;-67
2022/10/17 12:54:40;;;;;;;11.30;5.83;;;;;;;;;;740862;186;915950;-59
2022/10/17 12:57:12;;;;;;;17.27;7.40;;;;;;;;;;748305;185;915013;-59
2022/10/17 12:59:38;;;;;;;11.20;6.10;;;;;;;;;;743303;184;820024;-65
2022/10/17 13:02:03;;;;;;;9.70;5.50;;;;;;;;;;742331;187;916381;-60
2022/10/17 13:04:30;;;;;;;8.53;5.53;;;;;;;;;;745829;186;817845;-66
2022/10/17 13:06:56;;;;;;;8.60;5.13;;;;;;;;;;741511;187;910553;-60
2022/10/17 13:09:25;;;;;;;6.70;4.37;;;;;;;;;;740717;187;918294;-65
2022/10/17 13:11:51;;;;;;;8.37;6.83;;;;;;;;;;742428;187;917865;-60
2022/10/17 13:14:17;;;;;;;9.50;5.97;;;;;;;;;;745873;186;917881;-59
2022/10/17 13:16:49;;;;;;;7.80;5.70;;;;;;;;;;740958;187;932301;-65
2022/10/17 13:19:15;;;;;;;11.67;5.73;;;;;;;;;;741392;186;881865;-65
2022/10/17 13:21:46;;;;;;;7.50;5.83;;;;;;;;;;741854;187;922571;-65
2022/10/17 13:24:18;;;;;;;6.30;5.13;;;;;;;;;;747323;188;918835;-59
2022/10/17 13:26:44;;;;;;;7.87;5.40;;;;;;;;;;738111;187;919048;-59
2022/10/17 13:29:09;;;;;;;8.33;5.63;;;;;;;;;;741366;186;915548;-59
2022/10/17 13:31:35;;;;;;;9.40;4.90;;;;;;;;;;744286;186;921473;-60
2022/10/17 13:34:01;;;;;;;7.50;5.77;;;;;;;;;;750827;186;814778;-66
2022/10/17 13:36:27;;;;;;;11.27;5.80;;;;;;;;;;744269;187;915282;-58
2022/10/17 13:38:53;;;;;;;7.10;5.23;;;;;;;;;;747618;187;627378;-59
2022/10/17 13:41:19;;;;;;;7.53;4.60;;;;;;;;;;752448;187;802920;-66
2022/10/17 13:43:45;;;;;;;9.40;4.65;;;;;;;;;;744829;185;918360;-66
2022/10/17 13:46:11;;;;;;;6.77;4.57;;;;;;;;;;743699;187;918261;-66
2022/10/17 13:48:37;;;;;;;7.20;5.20;;;;;;;;;;745826;187;921339;-59
2022/10/17 13:51:03;;;;;;;6.80;4.83;;;;;;;;;;744653;186;919050;-65
2022/10/17 13:53:29;;;;;;;9.93;5.70;;;;;;;;;;743136;184;817327;-65
2022/10/17 13:55:57;;;;;;;6.97;4.95;;;;;;;;;;744984;186;815908;-64
2022/10/17 13:58:22;;;;;;;8.03;4.70;;;;;;;;;;749970;185;916088;-60
2022/10/17 14:00:51;;;;;;;13.53;6.00;;;;;;;;;;741244;186;915885;-67
2022/10/17 14:03:14;;;;;;;9.63;5.03;;;;;;;;;;743370;187;840600;-59
2022/10/17 14:05:46;;;;;;;7.30;5.00;;;;;;;;;;749450;187;918524;-58
2022/10/17 14:08:15;;;;;;;11.43;5.63;;;;;;;;;;743760;183;918250;-59
2022/10/17 14:10:38;;;;;;;8.23;5.00;;;;;;;;;;744792;187;819958;-59